Impacts METAR Board
IDs:

KDEN - Denver Intl, CO, US

Updated at: 1200 UTC 15 Jul 2020
Potential Impact None Slight Moderate High
Time 15/00Z 15/01Z 15/02Z 15/03Z 15/04Z 15/05Z 15/06Z 15/07Z 15/08Z 15/09Z 15/10Z 15/11Z 15/12Z
Temp67 66 69 66 68 67 63 63 62 63 61 60 60
Dewpt61 61 60 57 57 58 60 60 59 59 55 54 53
Altim30.11 30.05 30.06 30.07 30.12 30.12 30.15 30.12 30.10 30.11 30.10 30.10 30.10
VIS10 10 10 10 10 10 10 10 10 10 10 10 10
CIG100 100 150 150 140 140 120 110 150 -- -- -- 120
CoverBKNBKNBKNBKNBKNOVCOVCOVCBKNFEWFEWSCTBKN
FltCatVFRVFRVFRVFRVFRVFRVFRVFRVFRVFRVFRVFRVFR
WXVCTS------------------------
WDir1401601701900300130140200230230210230
WSpd8 20 17 8 0 6 6 4 6 10 7 8 10
WGst-- -- 25 -- -- -- -- -- -- -- -- -- --
Raw hourly METARs
KDEN 142353Z 14008KT 10SM VCTS FEW035 BKN100CB BKN220 19/16 A3011 RMK AO2 LTG DSNT S-W RAE29 SLP125 OCNL LTGCG VC S TS VC S MOV E P0000 60002 T01940161 10267 20194 53002
KDEN 150058Z 16020KT 10SM FEW070 BKN100 BKN160 BKN220 19/16 A3005 RMK AO2 PK WND 16026/0058 LTG DSNT S AND SW RAE58 PRESFR P0000 T01890161
KDEN 150153Z 17017G25KT 10SM FEW070 SCT100 BKN150 BKN220 21/16 A3006 RMK AO2 PK WND 16033/0122 RAE0058B00E10 SLP114 P0000 T02060156
KDEN 150253Z 19008KT 10SM FEW110 BKN150 BKN220 19/14 A3007 RMK AO2 SLP115 60002 T01890139 55011
KDEN 150353Z 00000KT 10SM BKN140 BKN200 20/14 A3012 RMK AO2 SLP127 T02000139
KDEN 150453Z 30006KT 10SM FEW110 OVC140 19/14 A3012 RMK AO2 SLP126 T01940144
KDEN 150553Z 13006KT 10SM FEW080 BKN120 OVC160 17/16 A3015 RMK AO2 LTG DSNT SW SLP137 60002 T01720156 10206 20172 51023
KDEN 150653Z 14004KT 10SM FEW050 BKN110 OVC140 17/16 A3012 RMK AO2 RAB09E40 SLP123 P0000 T01720156 402670156
KDEN 150753Z 20006KT 10SM FEW060 SCT120 BKN150 17/15 A3010 RMK AO2 SLP121 T01670150
KDEN 150853Z 23010KT 10SM FEW120 17/15 A3011 RMK AO2 SLP120 60000 T01720150 55009
KDEN 150953Z 23007KT 10SM FEW120 16/13 A3010 RMK AO2 SLP122 T01610128
KDEN 151053Z 21008KT 10SM FEW120 SCT240 16/12 A3010 RMK AO2 SLP126 T01560122
KDEN 151153Z 23010KT 10SM FEW080 BKN120 BKN220 16/12 A3010 RMK AO2 SLP130 60000 70004 T01560117 10178 20156 55004



Page loaded:  12:10 UTC  |   05:10 AM Pacific  |   06:10 AM Mountain  |   07:10 AM Central  |   08:10 AM Eastern

 

ADVISORIES

FORECASTS

FORECASTS

OBSERVATIONS

USER TOOLS

ABOUT US